Terminal Aerodrome Forecast
Issued by NWS

Home | Current Version | Previous Version | Graphics & Text | Print | Product List | Glossary On
Versions: 1 2 3 4 5 6 7 8 9 10 11 12 13 14 15
526
FTUS43 KMPX 281120
TAFRNH
TAF
KRNH 281120Z 2812/2912 30009KT P6SM BKN035
     FM281400 31008KT P6SM SCT035
     FM281700 32007KT P6SM BKN200
     FM290100 01005KT P6SM OVC150=

USA.gov is the U.S. government's official web portal to all federal, state and local government web resources and services.